createdAt,value
2018-05-06T00:01:04.278Z,12.70
2018-05-06T00:03:31.805Z,12.70
2018-05-06T00:05:59.375Z,12.70
2018-05-06T00:08:26.995Z,12.60
2018-05-06T00:10:54.526Z,12.60
2018-05-06T00:13:22.058Z,12.60
2018-05-06T00:15:50.392Z,12.50
2018-05-06T00:18:17.918Z,12.50
2018-05-06T00:20:45.856Z,12.50
2018-05-06T00:23:13.454Z,12.40
2018-05-06T00:25:41.009Z,12.40
2018-05-06T00:28:08.555Z,12.40
2018-05-06T00:30:36.144Z,12.40
2018-05-06T00:33:03.683Z,12.40
2018-05-06T00:35:31.261Z,12.30
2018-05-06T00:37:58.918Z,12.30
2018-05-06T00:40:27.244Z,12.30
2018-05-06T00:42:54.772Z,12.30
2018-05-06T00:45:23.197Z,12.20
2018-05-06T00:47:50.729Z,12.20
2018-05-06T00:50:19.060Z,12.20
2018-05-06T00:52:46.641Z,12.20
2018-05-06T00:55:14.168Z,12.20
2018-05-06T00:57:42.484Z,12.10
2018-05-06T01:00:10.130Z,12.10
2018-05-06T01:02:38.425Z,12.10
2018-05-06T01:05:05.949Z,12.10
2018-05-06T01:07:33.525Z,12.10
2018-05-06T01:10:01.063Z,12.10
2018-05-06T01:12:28.601Z,12.10
2018-05-06T01:14:57.038Z,12.00
2018-05-06T01:17:24.577Z,12.00
2018-05-06T01:19:52.113Z,12.00
2018-05-06T01:22:19.693Z,12.00
2018-05-06T01:24:48.012Z,12.00
2018-05-06T01:27:17.002Z,11.90
2018-05-06T01:29:46.278Z,11.90
2018-05-06T01:32:13.828Z,11.90
2018-05-06T01:34:41.373Z,11.90
2018-05-06T01:37:08.949Z,11.90
2018-05-06T01:39:36.482Z,11.90
2018-05-06T01:42:04.004Z,11.90
2018-05-06T01:44:31.580Z,11.80
2018-05-06T01:46:59.108Z,11.80
2018-05-06T01:49:27.405Z,11.70
2018-05-06T01:51:54.980Z,11.70
2018-05-06T01:54:22.529Z,11.80
2018-05-06T01:56:50.843Z,11.70
2018-05-06T01:59:18.421Z,11.70
2018-05-06T02:01:46.592Z,11.70
2018-05-06T02:04:14.120Z,11.70
2018-05-06T02:06:41.705Z,11.60
2018-05-06T02:09:09.236Z,11.60
2018-05-06T02:11:36.778Z,11.60
2018-05-06T02:14:04.361Z,11.60
2018-05-06T02:16:31.897Z,11.60
2018-05-06T02:19:00.198Z,11.50
2018-05-06T02:21:28.536Z,11.50
2018-05-06T02:23:56.069Z,11.50
2018-05-06T02:26:23.601Z,11.50
2018-05-06T02:28:51.184Z,11.50
2018-05-06T02:31:19.503Z,11.50
2018-05-06T02:33:47.033Z,11.40
2018-05-06T02:36:14.600Z,11.50
2018-05-06T02:38:42.126Z,11.40
2018-05-06T02:41:09.661Z,11.40
2018-05-06T02:43:37.240Z,11.40
2018-05-06T02:46:05.537Z,11.40
2018-05-06T02:48:33.832Z,11.30
2018-05-06T02:51:01.421Z,11.30
2018-05-06T02:53:28.960Z,11.30
2018-05-06T02:55:57.250Z,11.30
2018-05-06T02:58:25.594Z,11.30
2018-05-06T03:00:53.205Z,11.30
2018-05-06T03:03:21.592Z,11.30
2018-05-06T03:05:50.036Z,11.30
2018-05-06T03:08:17.654Z,11.20
2018-05-06T03:10:46.952Z,11.20
2018-05-06T03:13:15.392Z,11.20
2018-05-06T03:15:43.011Z,11.20
2018-05-06T03:18:10.630Z,11.20
2018-05-06T03:20:38.289Z,11.20
2018-05-06T03:23:05.917Z,11.10
2018-05-06T03:25:33.532Z,11.10
2018-05-06T03:28:01.956Z,11.10
2018-05-06T03:30:29.568Z,11.10
2018-05-06T03:32:57.189Z,11.10
2018-05-06T03:35:24.859Z,11.20
2018-05-06T03:37:52.491Z,11.20
2018-05-06T03:40:20.122Z,11.20
2018-05-06T03:42:47.786Z,11.20
2018-05-06T03:45:15.409Z,11.20
2018-05-06T03:47:43.029Z,11.10
2018-05-06T03:50:10.686Z,11.10
2018-05-06T03:52:38.312Z,11.20
2018-05-06T03:55:05.924Z,11.10
2018-05-06T03:57:45.407Z,11.10
2018-05-06T04:00:24.729Z,11.10
2018-05-06T04:02:53.261Z,11.10
2018-05-06T04:05:20.887Z,11.10
2018-05-06T04:07:48.509Z,11.10
2018-05-06T04:10:16.165Z,11.20
2018-05-06T04:12:43.838Z,11.20
2018-05-06T04:15:11.595Z,11.20
2018-05-06T04:17:39.489Z,11.20
2018-05-06T04:20:07.109Z,11.40
2018-05-06T04:22:34.817Z,11.70
2018-05-06T04:25:02.645Z,12.20
2018-05-06T04:27:30.274Z,12.80
2018-05-06T04:29:57.886Z,13.50
2018-05-06T04:32:25.638Z,14.30
2018-05-06T04:34:53.252Z,15.20
2018-05-06T04:37:20.976Z,15.80
2018-05-06T04:39:48.761Z,16.40
2018-05-06T04:42:16.381Z,16.80
2018-05-06T04:44:43.988Z,17.10
2018-05-06T04:47:11.719Z,17.30
2018-05-06T04:49:39.354Z,17.80
2018-05-06T04:52:06.977Z,18.20
2018-05-06T04:54:34.653Z,18.60
2018-05-06T04:57:02.285Z,18.60
2018-05-06T04:59:29.923Z,18.80
2018-05-06T05:01:57.683Z,19.20
2018-05-06T05:04:26.065Z,19.70
2018-05-06T05:06:54.456Z,19.90
2018-05-06T05:09:22.872Z,20.30
2018-05-06T05:11:50.559Z,20.20
2018-05-06T05:14:18.225Z,20.20
2018-05-06T05:16:45.883Z,20.50
2018-05-06T05:19:14.260Z,21.00
2018-05-06T05:21:42.742Z,21.60
2018-05-06T05:24:10.463Z,21.60
2018-05-06T05:26:38.081Z,21.80
2018-05-06T05:29:05.737Z,21.90
2018-05-06T05:31:33.611Z,21.80
2018-05-06T05:34:01.255Z,21.80
2018-05-06T05:36:28.981Z,22.00
2018-05-06T05:38:56.838Z,22.50
2018-05-06T05:41:24.721Z,22.70
2018-05-06T05:43:52.348Z,22.50
2018-05-06T05:46:20.025Z,22.10
2018-05-06T05:48:47.840Z,22.40
2018-05-06T05:51:15.461Z,23.20
2018-05-06T05:53:43.893Z,24.20
2018-05-06T05:56:11.541Z,24.10
2018-05-06T05:58:39.377Z,24.60
2018-05-06T06:01:07.118Z,25.10
2018-05-06T06:03:34.939Z,25.00
2018-05-06T06:06:03.363Z,25.00
2018-05-06T06:08:31.080Z,25.00
2018-05-06T06:10:58.810Z,25.10
2018-05-06T06:13:26.861Z,25.40
2018-05-06T06:15:54.716Z,25.90
2018-05-06T06:18:22.355Z,26.30
2018-05-06T06:20:50.042Z,26.30
2018-05-06T06:23:19.069Z,26.20
2018-05-06T06:25:46.689Z,26.20
2018-05-06T06:28:15.109Z,26.50
2018-05-06T06:30:42.766Z,26.50
2018-05-06T06:33:10.473Z,27.00
2018-05-06T06:35:38.085Z,27.00
2018-05-06T06:38:06.626Z,26.80
2018-05-06T06:40:34.249Z,26.70
2018-05-06T06:43:01.865Z,27.00
2018-05-06T06:45:29.625Z,27.00
2018-05-06T06:47:57.317Z,26.80
2018-05-06T06:50:25.689Z,26.60
2018-05-06T06:52:53.358Z,26.50
2018-05-06T06:55:21.745Z,26.10
2018-05-06T06:57:50.125Z,25.30
2018-05-06T07:00:19.466Z,25.00
2018-05-06T07:02:47.153Z,25.00
2018-05-06T07:05:14.767Z,24.70
2018-05-06T07:07:42.455Z,24.30
2018-05-06T07:10:10.845Z,23.30
2018-05-06T07:12:38.522Z,23.30
2018-05-06T07:17:44.021Z,22.70
2018-05-06T07:20:12.466Z,22.70
2018-05-06T07:22:40.080Z,22.70
2018-05-06T07:25:07.747Z,22.70
2018-05-06T07:27:36.129Z,22.30
2018-05-06T07:30:03.745Z,22.30
2018-05-06T07:32:31.394Z,22.10
2018-05-06T07:34:59.790Z,22.20
2018-05-06T07:37:27.406Z,22.20
2018-05-06T07:39:55.062Z,22.30
2018-05-06T07:42:22.689Z,22.20
2018-05-06T07:44:51.086Z,22.00
2018-05-06T07:47:19.463Z,22.00
2018-05-06T07:49:47.177Z,22.00
2018-05-06T07:52:14.857Z,22.00
2018-05-06T07:54:42.510Z,22.10
2018-05-06T07:57:10.933Z,22.50
2018-05-06T07:59:38.556Z,22.50
2018-05-06T08:02:07.930Z,22.60
2018-05-06T08:04:35.562Z,22.60
2018-05-06T08:07:03.953Z,22.90
2018-05-06T08:09:31.669Z,22.90
2018-05-06T08:11:59.321Z,22.60
2018-05-06T08:14:26.978Z,22.40
2018-05-06T08:16:54.661Z,22.50
2018-05-06T08:19:22.274Z,22.50
2018-05-06T08:21:50.013Z,22.50
2018-05-06T08:24:17.733Z,22.50
2018-05-06T08:26:45.359Z,22.50
2018-05-06T08:29:12.997Z,22.50
2018-05-06T08:31:41.444Z,22.90
2018-05-06T08:34:09.069Z,22.90
2018-05-06T08:36:37.489Z,23.20
2018-05-06T08:39:06.087Z,23.20
2018-05-06T08:41:33.697Z,22.90
2018-05-06T08:44:01.325Z,22.50
2018-05-06T08:46:29.006Z,22.10
2018-05-06T08:48:56.622Z,22.20
2018-05-06T08:51:24.253Z,22.60
2018-05-06T08:53:51.918Z,23.00
2018-05-06T08:56:19.917Z,23.00
2018-05-06T08:58:47.547Z,22.80
2018-05-06T09:01:15.997Z,22.20
2018-05-06T09:03:43.646Z,22.20
2018-05-06T09:06:11.847Z,22.30
2018-05-06T09:08:39.504Z,22.80
2018-05-06T09:11:07.164Z,23.10
2018-05-06T09:13:34.821Z,23.10
2018-05-06T09:16:02.623Z,23.40
2018-05-06T09:18:30.244Z,23.20
2018-05-06T09:20:57.853Z,22.70
2018-05-06T09:23:26.385Z,22.90
2018-05-06T09:25:54.019Z,22.90
2018-05-06T09:28:22.400Z,23.30
2018-05-06T09:30:50.828Z,23.50
2018-05-06T09:33:18.445Z,23.50
2018-05-06T09:35:46.083Z,23.70
2018-05-06T09:38:13.743Z,23.90
2018-05-06T09:40:41.362Z,24.00
2018-05-06T09:43:08.994Z,23.80
2018-05-06T09:45:36.649Z,23.50
2018-05-06T09:48:04.275Z,23.70
2018-05-06T09:50:32.021Z,23.90
2018-05-06T09:52:59.674Z,23.90
2018-05-06T09:55:27.287Z,24.10
2018-05-06T09:57:54.901Z,24.30
2018-05-06T10:00:22.781Z,24.40
2018-05-06T10:02:50.475Z,24.40
2018-05-06T10:05:18.144Z,24.50
2018-05-06T10:07:45.802Z,24.30
2018-05-06T10:10:14.241Z,24.40
2018-05-06T10:12:41.865Z,24.40
2018-05-06T10:15:10.381Z,24.70
2018-05-06T10:17:38.009Z,24.70
2018-05-06T10:20:05.634Z,24.80
2018-05-06T10:22:33.317Z,25.00
2018-05-06T10:25:01.010Z,25.00
2018-05-06T10:27:28.648Z,25.10
2018-05-06T10:29:56.309Z,25.00
2018-05-06T10:32:23.925Z,24.60
2018-05-06T10:34:51.603Z,24.50
2018-05-06T10:37:19.259Z,24.30
2018-05-06T10:39:46.915Z,24.50
2018-05-06T10:42:14.545Z,24.60
2018-05-06T10:44:42.259Z,24.70
2018-05-06T10:47:09.898Z,24.70
2018-05-06T10:49:37.576Z,24.80
2018-05-06T10:52:06.001Z,24.60
2018-05-06T10:54:33.790Z,24.60
2018-05-06T10:57:01.410Z,24.70
2018-05-06T10:59:29.117Z,24.40
2018-05-06T11:01:56.748Z,24.20
2018-05-06T11:04:24.376Z,24.20
2018-05-06T11:06:52.030Z,24.10
2018-05-06T11:09:20.592Z,24.10
2018-05-06T11:11:49.060Z,24.10
2018-05-06T11:14:16.817Z,24.10
2018-05-06T11:16:44.469Z,24.00
2018-05-06T11:19:12.172Z,24.00
2018-05-06T11:21:39.873Z,23.50
2018-05-06T11:24:07.489Z,23.00
2018-05-06T11:26:35.122Z,22.80
2018-05-06T11:29:02.803Z,22.80
2018-05-06T11:31:30.415Z,23.00
2018-05-06T11:33:58.050Z,23.20
2018-05-06T11:36:25.778Z,23.40
2018-05-06T11:38:53.466Z,23.40
2018-05-06T11:41:21.086Z,23.10
2018-05-06T11:43:50.170Z,22.90
2018-05-06T11:46:17.796Z,22.80
2018-05-06T11:48:45.424Z,22.90
2018-05-06T11:51:13.130Z,23.00
2018-05-06T11:53:40.746Z,23.00
2018-05-06T11:56:08.381Z,23.00
2018-05-06T11:58:36.049Z,23.20
2018-05-06T12:01:03.731Z,23.20
2018-05-06T12:03:31.359Z,23.20
2018-05-06T12:05:59.009Z,23.30
2018-05-06T12:08:26.620Z,23.40
2018-05-06T12:10:55.033Z,23.50
2018-05-06T12:13:22.722Z,23.50
2018-05-06T12:15:50.722Z,23.60
2018-05-06T12:18:18.363Z,23.60
2018-05-06T12:20:46.148Z,23.50
2018-05-06T12:23:13.846Z,23.40
2018-05-06T12:25:41.489Z,23.40
2018-05-06T12:28:09.155Z,23.40
2018-05-06T12:30:36.778Z,23.50
2018-05-06T12:33:04.409Z,23.40
2018-05-06T12:35:32.065Z,23.20
2018-05-06T12:38:00.441Z,23.30
2018-05-06T12:40:28.825Z,23.40
2018-05-06T12:42:56.473Z,23.30
2018-05-06T12:45:24.089Z,23.50
2018-05-06T12:47:52.477Z,23.40
2018-05-06T12:50:21.717Z,23.20
2018-05-06T12:52:49.365Z,23.20
2018-05-06T12:55:17.765Z,23.30
2018-05-06T12:57:45.462Z,23.30
2018-05-06T13:00:13.257Z,23.50
2018-05-06T13:02:40.869Z,23.50
2018-05-06T13:05:08.530Z,23.60
2018-05-06T13:07:36.150Z,23.70
2018-05-06T13:10:03.787Z,23.80
2018-05-06T13:12:31.442Z,23.80
2018-05-06T13:14:59.068Z,23.80
2018-05-06T13:17:26.685Z,23.70
2018-05-06T13:19:54.369Z,23.70
2018-05-06T13:22:22.117Z,23.70
2018-05-06T13:24:49.729Z,23.80
2018-05-06T13:27:17.393Z,23.70
2018-05-06T13:29:45.777Z,23.60
2018-05-06T13:32:13.401Z,23.60
2018-05-06T13:34:41.062Z,23.70
2018-05-06T13:37:08.770Z,23.80
2018-05-06T13:39:36.385Z,23.90
2018-05-06T13:42:04.808Z,23.90
2018-05-06T13:44:32.418Z,23.90
2018-05-06T13:47:00.035Z,23.90
2018-05-06T13:49:28.467Z,23.70
2018-05-06T13:51:56.114Z,23.70
2018-05-06T13:54:23.729Z,23.70
2018-05-06T13:56:51.386Z,23.80
2018-05-06T13:59:18.997Z,23.80
2018-05-06T14:01:46.730Z,23.90
2018-05-06T14:04:14.504Z,23.80
2018-05-06T14:06:42.126Z,23.80
2018-05-06T14:09:09.753Z,23.80
2018-05-06T14:11:37.507Z,23.70
2018-05-06T14:14:05.166Z,23.60
2018-05-06T14:16:33.566Z,23.70
2018-05-06T14:19:01.227Z,23.70
2018-05-06T14:21:30.782Z,23.80
2018-05-06T14:23:59.158Z,23.80
2018-05-06T14:26:27.220Z,23.80
2018-05-06T14:31:28.818Z,23.90
2018-05-06T14:33:56.735Z,24.00
2018-05-06T14:36:24.928Z,24.00
2018-05-06T14:38:53.518Z,23.90
2018-05-06T14:41:21.773Z,23.80
2018-05-06T14:43:49.470Z,23.70
2018-05-06T14:46:29.090Z,23.70
2018-05-06T14:48:56.967Z,23.80
2018-05-06T14:51:25.360Z,23.90
2018-05-06T14:53:53.785Z,23.80
2018-05-06T14:56:21.593Z,23.80
2018-05-06T14:58:49.222Z,23.80
2018-05-06T15:01:17.020Z,23.80
2018-05-06T15:03:45.214Z,23.80
2018-05-06T15:06:12.820Z,23.70
2018-05-06T15:08:41.274Z,23.60
2018-05-06T15:11:08.893Z,23.60
2018-05-06T15:13:37.276Z,23.70
2018-05-06T15:16:04.956Z,23.70
2018-05-06T15:18:33.395Z,23.70
2018-05-06T15:21:01.010Z,23.70
2018-05-06T15:23:28.674Z,23.70
2018-05-06T15:25:56.296Z,23.60
2018-05-06T15:28:23.984Z,23.70
2018-05-06T15:30:52.693Z,23.50
2018-05-06T15:33:21.442Z,23.60
2018-05-06T15:35:49.857Z,23.40
2018-05-06T15:38:17.529Z,23.40
2018-05-06T15:40:45.640Z,23.40
2018-05-06T15:43:14.251Z,23.60
2018-05-06T15:45:41.930Z,23.70
2018-05-06T15:48:12.083Z,23.80
2018-05-06T15:50:39.810Z,23.80
2018-05-06T15:53:09.492Z,23.90
2018-05-06T15:55:38.641Z,24.00
2018-05-06T15:58:08.364Z,24.00
2018-05-06T16:00:36.083Z,24.10
2018-05-06T16:03:16.220Z,24.10
2018-05-06T16:05:43.898Z,24.10
2018-05-06T16:08:11.995Z,24.20
2018-05-06T16:10:39.623Z,24.20
2018-05-06T16:13:07.723Z,24.10
2018-05-06T16:15:35.348Z,24.10
2018-05-06T16:18:03.795Z,23.90
2018-05-06T16:20:31.563Z,23.90
2018-05-06T16:22:59.466Z,23.80
2018-05-06T16:25:27.097Z,23.80
2018-05-06T16:27:55.820Z,23.70
2018-05-06T16:30:23.478Z,23.70
2018-05-06T16:32:51.151Z,23.70
2018-05-06T16:35:18.847Z,23.60
2018-05-06T16:37:46.594Z,23.60
2018-05-06T16:40:14.883Z,23.50
2018-05-06T16:42:42.558Z,23.50
2018-05-06T16:45:10.189Z,23.40
2018-05-06T16:47:38.117Z,23.40
2018-05-06T16:50:05.794Z,23.30
2018-05-06T16:52:33.412Z,23.20
2018-05-06T16:55:01.165Z,23.20
2018-05-06T16:57:28.838Z,23.10
2018-05-06T16:59:56.461Z,23.10
2018-05-06T17:02:25.825Z,23.00
2018-05-06T17:04:53.491Z,23.00
2018-05-06T17:07:21.122Z,22.90
2018-05-06T17:09:49.014Z,22.90
2018-05-06T17:12:16.678Z,22.90
2018-05-06T17:14:44.310Z,22.90
2018-05-06T17:17:11.934Z,22.90
2018-05-06T17:19:39.633Z,22.90
2018-05-06T17:22:07.258Z,22.80
2018-05-06T17:24:35.667Z,22.80
2018-05-06T17:27:03.335Z,22.80
2018-05-06T17:29:30.970Z,22.70
2018-05-06T17:31:58.602Z,22.70
2018-05-06T17:34:26.970Z,22.70
2018-05-06T17:36:55.357Z,22.60
2018-05-06T17:39:23.170Z,22.60
2018-05-06T17:41:50.840Z,22.50
2018-05-06T17:44:18.465Z,22.50
2018-05-06T17:46:46.351Z,22.40
2018-05-06T17:49:15.334Z,22.40
2018-05-06T17:51:42.966Z,22.40
2018-05-06T17:54:10.638Z,22.30
2018-05-06T17:56:38.447Z,22.30
2018-05-06T17:59:06.082Z,22.20
2018-05-06T18:01:33.811Z,22.20
2018-05-06T18:04:01.463Z,22.20
2018-05-06T18:06:29.088Z,22.10
2018-05-06T18:08:56.726Z,22.10
2018-05-06T18:11:25.313Z,22.00
2018-05-06T18:13:52.939Z,22.00
2018-05-06T18:16:20.562Z,21.90
2018-05-06T18:18:49.146Z,21.90
2018-05-06T18:21:16.831Z,21.80
2018-05-06T18:23:44.467Z,21.80
2018-05-06T18:26:12.122Z,21.70
2018-05-06T18:28:39.789Z,21.70
2018-05-06T18:31:07.489Z,21.60
2018-05-06T18:33:35.253Z,21.50
2018-05-06T18:36:02.914Z,21.50
2018-05-06T18:38:30.950Z,21.40
2018-05-06T18:40:58.605Z,21.40
2018-05-06T18:43:26.810Z,21.40
2018-05-06T18:45:55.068Z,21.30
2018-05-06T18:48:22.854Z,21.30
2018-05-06T18:50:51.455Z,21.20
2018-05-06T18:53:19.318Z,21.20
2018-05-06T18:55:47.115Z,21.10
2018-05-06T18:58:16.870Z,21.00
2018-05-06T19:00:44.599Z,21.00
2018-05-06T19:03:12.579Z,21.00
2018-05-06T19:05:40.209Z,20.90
2018-05-06T19:08:08.928Z,20.80
2018-05-06T19:10:36.701Z,20.80
2018-05-06T19:13:04.318Z,20.80
2018-05-06T19:15:32.178Z,20.70
2018-05-06T19:17:59.995Z,20.70
2018-05-06T19:20:28.597Z,20.60
2018-05-06T19:22:56.259Z,20.60
2018-05-06T19:25:23.928Z,20.60
2018-05-06T19:27:52.311Z,20.50
2018-05-06T19:30:19.903Z,20.40
2018-05-06T19:32:47.585Z,20.30
2018-05-06T19:35:15.269Z,20.20
2018-05-06T19:37:43.727Z,20.00
2018-05-06T19:40:12.230Z,20.00
2018-05-06T19:42:40.524Z,19.90
2018-05-06T19:45:09.380Z,19.80
2018-05-06T19:47:37.568Z,19.70
2018-05-06T19:50:05.201Z,19.60
2018-05-06T19:52:33.590Z,19.50
2018-05-06T19:55:02.693Z,19.40
2018-05-06T19:57:30.359Z,19.40
2018-05-06T19:59:57.999Z,19.30
2018-05-06T20:02:26.684Z,19.20
2018-05-06T20:04:54.859Z,19.10
2018-05-06T20:07:22.520Z,19.10
2018-05-06T20:09:50.278Z,19.00
2018-05-06T20:12:18.668Z,18.90
2018-05-06T20:14:46.377Z,18.90
2018-05-06T20:17:14.032Z,18.90
2018-05-06T20:19:42.007Z,18.80
2018-05-06T20:22:09.631Z,18.80
2018-05-06T20:24:37.397Z,18.70
2018-05-06T20:27:05.282Z,18.60
2018-05-06T20:29:33.289Z,18.60
2018-05-06T20:32:01.053Z,18.50
2018-05-06T20:34:28.727Z,18.50
2018-05-06T20:36:56.833Z,18.40
2018-05-06T20:39:26.191Z,18.30
2018-05-06T20:41:53.830Z,18.30
2018-05-06T20:44:22.746Z,18.20
2018-05-06T20:46:51.172Z,18.20
2018-05-06T20:49:18.859Z,18.20
2018-05-06T20:51:46.495Z,18.10
2018-05-06T20:54:14.220Z,18.10
2018-05-06T20:56:41.882Z,18.10
2018-05-06T20:59:10.434Z,18.10
2018-05-06T21:01:38.098Z,18.10
2018-05-06T21:04:06.509Z,18.00
2018-05-06T21:06:34.130Z,18.00
2018-05-06T21:09:02.058Z,18.00
2018-05-06T21:11:29.968Z,17.90
2018-05-06T21:13:57.627Z,17.90
2018-05-06T21:16:27.126Z,17.80
2018-05-06T21:18:55.243Z,17.80
2018-05-06T21:21:22.875Z,17.80
2018-05-06T21:23:50.551Z,17.80
2018-05-06T21:26:18.178Z,17.70
2018-05-06T21:28:45.835Z,17.70
2018-05-06T21:31:13.505Z,17.70
2018-05-06T21:33:41.463Z,17.70
2018-05-06T21:36:09.082Z,17.70
2018-05-06T21:38:37.213Z,17.60
2018-05-06T21:41:04.843Z,17.60
2018-05-06T21:43:32.530Z,17.70
2018-05-06T21:46:00.176Z,17.60
2018-05-06T21:48:27.813Z,17.60
2018-05-06T21:50:56.386Z,17.60
2018-05-06T21:53:24.053Z,17.60
2018-05-06T21:55:52.442Z,17.50
2018-05-06T21:58:20.822Z,17.50
2018-05-06T22:00:49.251Z,17.50
2018-05-06T22:03:16.870Z,17.50
2018-05-06T22:05:44.485Z,17.50
2018-05-06T22:08:12.142Z,17.40
2018-05-06T22:10:40.545Z,17.40
2018-05-06T22:13:08.160Z,17.30
2018-05-06T22:15:35.941Z,17.40
2018-05-06T22:18:04.363Z,17.40
2018-05-06T22:20:32.749Z,17.30
2018-05-06T22:23:01.178Z,17.20
2018-05-06T22:25:28.812Z,17.20
2018-05-06T22:27:56.540Z,17.20
2018-05-06T22:30:24.307Z,17.10
2018-05-06T22:32:51.925Z,17.10
2018-05-06T22:35:19.556Z,17.20
2018-05-06T22:37:47.220Z,17.10
2018-05-06T22:40:14.833Z,17.10
2018-05-06T22:42:42.447Z,17.00
2018-05-06T22:45:10.978Z,17.00
2018-05-06T22:47:38.648Z,17.00
2018-05-06T22:50:06.264Z,17.00
2018-05-06T22:52:33.915Z,16.90
2018-05-06T22:55:01.547Z,16.90
2018-05-06T22:57:29.174Z,16.80
2018-05-06T22:59:56.845Z,16.70
2018-05-06T23:02:24.457Z,16.70
2018-05-06T23:04:52.070Z,16.70
2018-05-06T23:07:19.733Z,16.70
2018-05-06T23:09:47.635Z,16.60
2018-05-06T23:12:15.243Z,16.60
2018-05-06T23:14:43.761Z,16.50
2018-05-06T23:17:11.373Z,16.50
2018-05-06T23:19:38.994Z,16.50
2018-05-06T23:22:07.418Z,16.40
2018-05-06T23:24:35.037Z,16.40
2018-05-06T23:27:03.421Z,16.30
2018-05-06T23:29:31.082Z,16.30
2018-05-06T23:31:58.702Z,16.30
2018-05-06T23:34:26.732Z,16.30
2018-05-06T23:36:54.393Z,16.20
2018-05-06T23:39:21.997Z,16.20
2018-05-06T23:41:49.614Z,16.20
2018-05-06T23:44:17.273Z,16.20
2018-05-06T23:46:44.885Z,16.10
2018-05-06T23:49:12.506Z,16.10
2018-05-06T23:51:40.942Z,16.00
2018-05-06T23:54:08.590Z,16.00
2018-05-06T23:56:36.204Z,16.00
2018-05-06T23:59:03.877Z,16.00
